Time,TemperatureF,DewpointF,PressureIn,WindDirection,WindDirectionDegrees,WindSpeedMPH,WindSpeedGustMPH,Humidity,HourlyPrecipIn,Conditions,Clouds,dailyrainin,SoftwareType,DateUTC
2013-01-26 00:18:00,-1.5,-5.1,29.91,West,270,0.0,-999.0,84,-99.99,,,0.00,Acu-Link.com,2013-01-26 05:18:00,
2013-01-26 00:33:00,-1.7,-5.3,29.91,West,270,0.0,-999.0,84,-99.99,,,0.00,Acu-Link.com,2013-01-26 05:33:00,
2013-01-26 00:48:00,-1.7,-5.1,29.91,West,270,0.0,-999.0,85,-99.99,,,0.00,Acu-Link.com,2013-01-26 05:48:00,
2013-01-26 01:03:00,-1.7,-5.1,29.91,North,0,0.0,-999.0,85,-99.99,,,0.00,Acu-Link.com,2013-01-26 06:03:00,
2013-01-26 01:18:00,-1.5,-4.9,29.91,WSW,247,0.0,-999.0,85,-99.99,,,0.00,Acu-Link.com,2013-01-26 06:18:00,
2013-01-26 01:34:00,-1.5,-4.9,29.91,West,270,0.0,-999.0,85,-99.99,,,0.00,Acu-Link.com,2013-01-26 06:34:00,
2013-01-26 01:49:00,-1.5,-4.6,29.91,ESE,112,0.0,-999.0,86,-99.99,,,0.00,Acu-Link.com,2013-01-26 06:49:00,
2013-01-26 02:04:00,-1.5,-4.6,29.91,WNW,292,0.0,-999.0,86,-99.99,,,0.00,Acu-Link.com,2013-01-26 07:04:00,
2013-01-26 02:19:00,-1.7,-4.8,29.90,SW,225,0.0,-999.0,86,-99.99,,,0.00,Acu-Link.com,2013-01-26 07:19:00,
2013-01-26 02:34:00,-2.2,-4.9,29.90,East,90,0.0,-999.0,88,-99.99,,,0.00,Acu-Link.com,2013-01-26 07:34:00,
2013-01-26 02:50:00,-2.7,-5.4,29.91,NNE,22,0.0,-999.0,88,-99.99,,,0.00,Acu-Link.com,2013-01-26 07:50:00,
2013-01-26 03:05:00,-3.5,-6.1,29.89,NNE,22,0.0,-999.0,88,-99.99,,,0.00,Acu-Link.com,2013-01-26 08:05:00,
2013-01-26 03:20:00,-4.0,-6.6,29.89,NNE,22,0.0,-999.0,88,-99.99,,,0.00,Acu-Link.com,2013-01-26 08:20:00,
2013-01-26 03:35:00,-4.5,-7.1,29.90,NNE,22,0.0,-999.0,88,-99.99,,,0.00,Acu-Link.com,2013-01-26 08:35:00,
2013-01-26 03:51:00,-5.1,-7.3,29.89,NNE,22,0.0,-999.0,90,-99.99,,,0.00,Acu-Link.com,2013-01-26 08:51:00,
2013-01-26 04:16:00,-5.3,-7.5,29.90,NNE,22,0.0,-999.0,90,-99.99,,,0.00,Acu-Link.com,2013-01-26 09:16:00,
2013-01-26 04:32:00,-6.3,-8.5,29.90,NE,45,0.0,-999.0,90,-99.99,,,0.00,Acu-Link.com,2013-01-26 09:32:00,
2013-01-26 04:47:00,-7.2,-9.6,29.89,North,0,0.0,-999.0,89,-99.99,,,0.00,Acu-Link.com,2013-01-26 09:47:00,
2013-01-26 05:02:00,-8.5,-10.9,29.89,NNE,22,1.7,-999.0,89,-99.99,,,0.00,Acu-Link.com,2013-01-26 10:02:00,
2013-01-26 05:17:00,-8.5,-10.4,29.89,North,0,2.2,-999.0,91,-99.99,,,0.00,Acu-Link.com,2013-01-26 10:17:00,
2013-01-26 05:32:00,-9.2,-11.1,29.90,NNE,22,1.7,-999.0,91,-99.99,,,0.00,Acu-Link.com,2013-01-26 10:32:00,
2013-01-26 05:47:00,-9.8,-11.9,29.90,North,0,0.0,-999.0,90,-99.99,,,0.00,Acu-Link.com,2013-01-26 10:47:00,
2013-01-26 06:03:00,-10.3,-12.6,29.90,ENE,67,0.0,-999.0,89,-99.99,,,0.00,Acu-Link.com,2013-01-26 11:03:00,
2013-01-26 06:18:00,-11.0,-13.3,29.90,NE,45,0.0,-999.0,89,-99.99,,,0.00,Acu-Link.com,2013-01-26 11:18:00,
2013-01-26 06:33:00,-11.2,-13.1,29.91,NE,45,0.0,-999.0,91,-99.99,,,0.00,Acu-Link.com,2013-01-26 11:33:00,
2013-01-26 06:48:00,-11.6,-13.7,29.91,East,90,0.0,-999.0,90,-99.99,,,0.00,Acu-Link.com,2013-01-26 11:48:00,
2013-01-26 07:03:00,-11.9,-14.0,29.91,West,270,0.0,-999.0,90,-99.99,,,0.00,Acu-Link.com,2013-01-26 12:03:00,
2013-01-26 07:19:00,-12.5,-15.0,29.91,NNE,22,0.0,-999.0,88,-99.99,,,0.00,Acu-Link.com,2013-01-26 12:19:00,
2013-01-26 07:34:00,-11.9,-13.8,29.92,SE,135,0.0,-999.0,91,-99.99,,,0.00,Acu-Link.com,2013-01-26 12:34:00,
2013-01-26 07:49:00,-10.8,-13.1,29.92,SSE,157,2.2,-999.0,89,-99.99,,,0.00,Acu-Link.com,2013-01-26 12:49:00,
2013-01-26 08:04:00,-8.0,-10.6,29.93,SW,225,0.0,-999.0,88,-99.99,,,0.00,Acu-Link.com,2013-01-26 13:04:00,
2013-01-26 08:19:00,-6.9,-10.4,29.93,SE,135,1.7,-999.0,84,-99.99,,,0.00,Acu-Link.com,2013-01-26 13:19:00,
2013-01-26 08:35:00,-7.1,-10.2,29.94,SE,135,1.1,-999.0,86,-99.99,,,0.00,Acu-Link.com,2013-01-26 13:35:00,
2013-01-26 08:50:00,-5.1,-8.7,29.94,SE,135,0.0,-999.0,84,-99.99,,,0.00,Acu-Link.com,2013-01-26 13:50:00,
2013-01-26 09:05:00,1.4,-5.5,29.93,North,0,1.1,-999.0,72,-99.99,,,0.00,Acu-Link.com,2013-01-26 14:05:00,
2013-01-26 09:20:00,2.1,-5.1,29.94,WNW,292,6.8,-999.0,71,-99.99,,,0.00,Acu-Link.com,2013-01-26 14:20:00,
2013-01-26 09:35:00,2.7,-5.1,29.94,WNW,292,4.2,-999.0,69,-99.99,,,0.00,Acu-Link.com,2013-01-26 14:35:00,
2013-01-26 09:51:00,3.7,-5.1,29.93,WSW,247,4.7,-999.0,66,-99.99,,,0.00,Acu-Link.com,2013-01-26 14:51:00,
2013-01-26 10:06:00,4.8,-4.7,29.94,NW,315,3.7,-999.0,64,-99.99,,,0.00,Acu-Link.com,2013-01-26 15:06:00,
2013-01-26 10:21:00,5.9,-5.3,29.94,North,0,3.2,-999.0,59,-99.99,,,0.00,Acu-Link.com,2013-01-26 15:21:00,
2013-01-26 10:36:00,5.4,-5.8,29.94,West,270,6.3,-999.0,59,-99.99,,,0.00,Acu-Link.com,2013-01-26 15:36:00,
2013-01-26 10:52:00,5.7,-6.2,29.94,North,0,2.2,-999.0,57,-99.99,,,0.00,Acu-Link.com,2013-01-26 15:52:00,
2013-01-26 11:07:00,7.5,-5.6,29.92,WSW,247,9.9,-999.0,54,-99.99,,,0.00,Acu-Link.com,2013-01-26 16:07:00,
2013-01-26 11:22:00,7.9,-6.0,29.92,WSW,247,7.8,-999.0,52,-99.99,,,0.00,Acu-Link.com,2013-01-26 16:22:00,
2013-01-26 11:37:00,6.8,-7.1,29.91,West,270,8.9,-999.0,52,-99.99,,,0.00,Acu-Link.com,2013-01-26 16:37:00,
2013-01-26 11:52:00,6.4,-6.7,29.91,SW,225,7.3,-999.0,54,-99.99,,,0.00,Acu-Link.com,2013-01-26 16:52:00,
2013-01-26 12:08:00,7.2,-6.3,29.91,NNW,337,5.8,-999.0,53,-99.99,,,0.00,Acu-Link.com,2013-01-26 17:08:00,
2013-01-26 12:23:00,6.6,-6.5,29.90,SSW,202,4.2,-999.0,54,-99.99,,,0.00,Acu-Link.com,2013-01-26 17:23:00,
2013-01-26 12:38:00,5.9,-7.1,29.90,SW,225,5.8,-999.0,54,-99.99,,,0.00,Acu-Link.com,2013-01-26 17:38:00,
2013-01-26 12:53:00,6.4,-6.7,29.90,West,270,9.9,-999.0,54,-99.99,,,0.00,Acu-Link.com,2013-01-26 17:53:00,
2013-01-26 13:08:00,5.2,-7.4,29.90,NW,315,4.7,-999.0,55,-99.99,,,0.00,Acu-Link.com,2013-01-26 18:08:00,
2013-01-26 13:24:00,5.4,-6.5,29.90,SW,225,5.8,-999.0,57,-99.99,,,0.00,Acu-Link.com,2013-01-26 18:24:00,
2013-01-26 13:39:00,6.4,-7.0,29.90,SW,225,6.3,-999.0,53,-99.99,,,0.00,Acu-Link.com,2013-01-26 18:39:00,
2013-01-26 13:54:00,6.4,-6.7,29.90,West,270,6.8,-999.0,54,-99.99,,,0.00,Acu-Link.com,2013-01-26 18:54:00,
2013-01-26 14:09:00,5.7,-6.6,29.91,South,180,8.3,-999.0,56,-99.99,,,0.00,Acu-Link.com,2013-01-26 19:09:00,
2013-01-26 14:25:00,6.4,-6.7,29.91,West,270,11.4,-999.0,54,-99.99,,,0.00,Acu-Link.com,2013-01-26 19:25:00,
2013-01-26 14:40:00,6.8,-7.1,29.92,West,270,6.8,-999.0,52,-99.99,,,0.00,Acu-Link.com,2013-01-26 19:40:00,
2013-01-26 14:55:00,5.7,-7.7,29.92,West,270,10.4,-999.0,53,-99.99,,,0.00,Acu-Link.com,2013-01-26 19:55:00,
2013-01-26 15:10:00,6.1,-7.7,29.92,West,270,7.3,-999.0,52,-99.99,,,0.00,Acu-Link.com,2013-01-26 20:10:00,
2013-01-26 15:25:00,5.0,-8.0,29.92,SW,225,8.3,-999.0,54,-99.99,,,0.00,Acu-Link.com,2013-01-26 20:25:00,
2013-01-26 15:41:00,5.9,-7.5,29.92,NNE,22,10.4,-999.0,53,-99.99,,,0.00,Acu-Link.com,2013-01-26 20:41:00,
2013-01-26 15:56:00,3.2,-8.2,29.93,WNW,292,5.3,-999.0,58,-99.99,,,0.00,Acu-Link.com,2013-01-26 20:56:00,
2013-01-26 16:11:00,3.2,-8.2,29.94,West,270,4.7,-999.0,58,-99.99,,,0.00,Acu-Link.com,2013-01-26 21:11:00,
2013-01-26 16:26:00,2.8,-8.2,29.94,West,270,5.8,-999.0,59,-99.99,,,0.00,Acu-Link.com,2013-01-26 21:26:00,
2013-01-26 16:41:00,2.3,-7.7,29.94,West,270,5.8,-999.0,62,-99.99,,,0.00,Acu-Link.com,2013-01-26 21:41:00,
2013-01-26 16:57:00,1.9,-7.4,29.95,WSW,247,8.3,-999.0,64,-99.99,,,0.00,Acu-Link.com,2013-01-26 21:57:00,
2013-01-26 17:12:00,1.9,-7.4,29.94,NW,315,5.8,-999.0,64,-99.99,,,0.00,Acu-Link.com,2013-01-26 22:12:00,
2013-01-26 17:27:00,1.9,-7.4,29.95,SSW,202,2.2,-999.0,64,-99.99,,,0.00,Acu-Link.com,2013-01-26 22:27:00,
2013-01-26 17:43:00,1.9,-6.8,29.96,SE,135,2.7,-999.0,66,-99.99,,,0.00,Acu-Link.com,2013-01-26 22:43:00,
2013-01-26 17:58:00,1.9,-6.5,29.96,WSW,247,6.8,-999.0,67,-99.99,,,0.00,Acu-Link.com,2013-01-26 22:58:00,
2013-01-26 18:13:00,1.8,-6.6,29.97,NNW,337,4.7,-999.0,67,-99.99,,,0.00,Acu-Link.com,2013-01-26 23:13:00,
2013-01-26 18:28:00,1.6,-6.5,29.97,East,90,4.7,-999.0,68,-99.99,,,0.00,Acu-Link.com,2013-01-26 23:28:00,
2013-01-26 18:43:00,1.4,-5.8,29.98,North,0,1.7,-999.0,71,-99.99,,,0.00,Acu-Link.com,2013-01-26 23:43:00,
2013-01-26 18:59:00,1.2,-4.8,29.99,NW,315,4.2,-999.0,75,-99.99,,,0.00,Acu-Link.com,2013-01-26 23:59:00,
2013-01-26 19:14:00,1.2,-3.5,29.99,West,270,3.2,-999.0,80,-99.99,,,0.00,Acu-Link.com,2013-01-27 00:14:00,
2013-01-26 19:29:00,1.4,-2.5,29.98,West,270,2.7,-999.0,83,-99.99,,,0.00,Acu-Link.com,2013-01-27 00:29:00,
2013-01-26 19:44:00,1.4,-2.3,29.99,West,270,4.2,-999.0,84,-99.99,,,0.00,Acu-Link.com,2013-01-27 00:44:00,
2013-01-26 20:00:00,1.6,-1.8,29.99,WSW,247,4.7,-999.0,85,-99.99,,,0.00,Acu-Link.com,2013-01-27 01:00:00,
2013-01-26 20:15:00,1.6,-1.6,29.98,NW,315,6.8,-999.0,86,-99.99,,,0.00,Acu-Link.com,2013-01-27 01:15:00,
2013-01-26 20:30:00,1.8,-1.2,29.98,NW,315,7.8,-999.0,87,-99.99,,,0.00,Acu-Link.com,2013-01-27 01:30:00,
2013-01-26 20:45:00,1.6,-1.4,29.99,SSW,202,4.7,-999.0,87,-99.99,,,0.00,Acu-Link.com,2013-01-27 01:45:00,
2013-01-26 21:00:00,1.6,-1.4,30.00,SW,225,5.8,-999.0,87,-99.99,,,0.00,Acu-Link.com,2013-01-27 02:00:00,
2013-01-26 21:16:00,1.8,-0.9,29.99,WNW,292,5.3,-999.0,88,-99.99,,,0.00,Acu-Link.com,2013-01-27 02:16:00,
2013-01-26 21:31:00,1.9,-0.6,30.00,WNW,292,5.3,-999.0,89,-99.99,,,0.00,Acu-Link.com,2013-01-27 02:31:00,
2013-01-26 21:46:00,2.1,-0.4,30.00,WNW,292,4.2,-999.0,89,-99.99,,,0.00,Acu-Link.com,2013-01-27 02:46:00,
2013-01-26 22:01:00,2.3,-0.2,30.01,WSW,247,10.4,-999.0,89,-99.99,,,0.00,Acu-Link.com,2013-01-27 03:01:00,
2013-01-26 22:16:00,2.7,0.2,30.01,West,270,9.4,-999.0,89,-99.99,,,0.00,Acu-Link.com,2013-01-27 03:16:00,
2013-01-26 22:32:00,2.8,0.3,30.02,West,270,8.3,-999.0,89,-99.99,,,0.00,Acu-Link.com,2013-01-27 03:32:00,
2013-01-26 22:47:00,2.7,0.0,30.03,West,270,6.8,-999.0,88,-99.99,,,0.00,Acu-Link.com,2013-01-27 03:47:00,
2013-01-26 23:02:00,2.3,-0.4,30.03,West,270,7.3,-999.0,88,-99.99,,,0.00,Acu-Link.com,2013-01-27 04:02:00,
2013-01-26 23:18:00,2.1,-0.6,30.04,WSW,247,4.2,-999.0,88,-99.99,,,0.00,Acu-Link.com,2013-01-27 04:18:00,
2013-01-26 23:33:00,2.1,-0.6,30.04,WNW,292,4.2,-999.0,88,-99.99,,,0.00,Acu-Link.com,2013-01-27 04:33:00,
2013-01-26 23:48:00,2.3,-0.4,30.05,West,270,9.9,-999.0,88,-99.99,,,0.00,Acu-Link.com,2013-01-27 04:48:00,